UNGO2: Muddy Boggy, Unger, OK

Data processed at Fri Jun 05 2020 22:55


All information presented herein is the property of the government of the United States of America and may be revised or deleted at any time without prior notice.
Dissemination of this information without the expressed written consent of the Public Affairs Office, Tulsa District U.S. Army Corps of Engineers is strictly prohibited.
These data are gathered electronically and, as presented, have not undergone any form of quality control. These data are not guaranteed to be valid or correct.
Go to home page.
Go to station list.
Go to home page.

Upstream stations:

Downstream station:
Previous Day
Next Day
Current Day
    
SHEF ID:       UNGO2     Muddy Boggy Creek near Unger, OK
STATION TYPE:  
Regulating: Stage =    39.00, Flow =    17600

               PRECIP     STAGE  STAGE(2)  RIV-FLOW  BAT-LOAD
                   in        ft        ft       cfs      volt
              Ccp-Rev   Ccp-Rev   Ccp-Rev   Ccp-Rev   Ccp-Rev
(US/Central)
06/05 00:00      0.00     14.85      ----      1340     12.65
06/05 01:00      0.00     14.76      ----      1310     12.65
06/05 02:00      0.00     14.68      ----      1290     12.65
06/05 03:00      0.00     14.60      ----      1270     12.65
06/05 04:00      0.00     14.50      ----      1240     12.65
06/05 05:00      0.00     14.39      ----      1210     12.65
06/05 06:00      0.00     14.29      ----      1180     12.65
06/05 07:00      0.00     14.17      ----      1150     12.65
06/05 08:00      0.00     14.05      ----      1120     12.65
06/05 09:00      0.00     13.94      ----      1090     13.29
06/05 10:00      0.00     13.82      ----      1060     13.29
06/05 11:00      0.00     13.70      ----      1030     13.21
06/05 12:00      0.00     13.58      ----       999     12.97
06/05 13:00      0.00     13.46      ----       970     12.89
06/05 14:00      0.00     13.35      ----       942     12.81
06/05 15:00      0.00     13.24      ----       916     12.81
06/05 16:00      0.00     13.14      ----       891     12.81
06/05 17:00      0.00     13.03      ----       866     12.81
06/05 18:00      0.00     12.94      ----       844     12.81
06/05 19:00      0.00     12.84      ----       822     12.81
06/05 20:00      0.00     12.75      ----       801     12.73
06/05 21:00      0.00     12.68      ----       787     12.73
06/05 22:00      ----      ----      ----      ----      ----
06/05 23:00      ----      ----      ----      ----      ----